sensor_id;sensor_type;location;lat;lon;timestamp;P1;durP1;ratioP1;P2;durP2;ratioP2
14907;SDS011;7545;52.092;7.006;2023-11-19T00:01:39;7.55;;;6.47;;
14907;SDS011;7545;52.092;7.006;2023-11-19T00:04:05;8.57;;;6.63;;
14907;SDS011;7545;52.092;7.006;2023-11-19T00:06:31;7.32;;;6.25;;
14907;SDS011;7545;52.092;7.006;2023-11-19T00:08:56;7.38;;;6.10;;
14907;SDS011;7545;52.092;7.006;2023-11-19T00:11:22;6.63;;;5.72;;
14907;SDS011;7545;52.092;7.006;2023-11-19T00:13:47;6.70;;;6.00;;
14907;SDS011;7545;52.092;7.006;2023-11-19T00:16:13;6.55;;;5.65;;
14907;SDS011;7545;52.092;7.006;2023-11-19T00:18:39;6.40;;;5.70;;
14907;SDS011;7545;52.092;7.006;2023-11-19T00:21:05;7.53;;;5.85;;
14907;SDS011;7545;52.092;7.006;2023-11-19T00:23:31;6.40;;;5.80;;
14907;SDS011;7545;52.092;7.006;2023-11-19T00:25:57;7.05;;;5.72;;
14907;SDS011;7545;52.092;7.006;2023-11-19T00:28:23;6.35;;;5.72;;
14907;SDS011;7545;52.092;7.006;2023-11-19T00:30:49;6.20;;;5.50;;
14907;SDS011;7545;52.092;7.006;2023-11-19T00:33:20;6.15;;;5.40;;
14907;SDS011;7545;52.092;7.006;2023-11-19T00:35:46;7.00;;;6.18;;
14907;SDS011;7545;52.092;7.006;2023-11-19T00:38:11;6.55;;;5.50;;
14907;SDS011;7545;52.092;7.006;2023-11-19T00:40:37;7.35;;;5.97;;
14907;SDS011;7545;52.092;7.006;2023-11-19T00:43:03;7.82;;;6.38;;
14907;SDS011;7545;52.092;7.006;2023-11-19T00:45:28;6.90;;;6.13;;
14907;SDS011;7545;52.092;7.006;2023-11-19T00:47:54;8.68;;;6.15;;
14907;SDS011;7545;52.092;7.006;2023-11-19T00:50:23;6.35;;;5.68;;
14907;SDS011;7545;52.092;7.006;2023-11-19T00:52:48;7.43;;;6.30;;
14907;SDS011;7545;52.092;7.006;2023-11-19T00:55:14;6.80;;;6.03;;
14907;SDS011;7545;52.092;7.006;2023-11-19T00:57:40;7.57;;;6.63;;
14907;SDS011;7545;52.092;7.006;2023-11-19T01:00:05;7.78;;;6.63;;
14907;SDS011;7545;52.092;7.006;2023-11-19T01:02:40;9.95;;;6.80;;
14907;SDS011;7545;52.092;7.006;2023-11-19T01:05:08;8.07;;;6.82;;
14907;SDS011;7545;52.092;7.006;2023-11-19T01:07:34;10.93;;;7.18;;
14907;SDS011;7545;52.092;7.006;2023-11-19T01:09:59;9.07;;;6.90;;
14907;SDS011;7545;52.092;7.006;2023-11-19T01:12:25;8.77;;;7.45;;
14907;SDS011;7545;52.092;7.006;2023-11-19T01:14:51;9.77;;;7.15;;
14907;SDS011;7545;52.092;7.006;2023-11-19T01:17:17;9.32;;;7.47;;
14907;SDS011;7545;52.092;7.006;2023-11-19T01:19:43;11.57;;;7.93;;
14907;SDS011;7545;52.092;7.006;2023-11-19T01:22:08;11.65;;;8.02;;
14907;SDS011;7545;52.092;7.006;2023-11-19T01:24:34;9.23;;;7.70;;
14907;SDS011;7545;52.092;7.006;2023-11-19T01:26:59;10.45;;;8.05;;
14907;SDS011;7545;52.092;7.006;2023-11-19T01:29:25;13.18;;;8.32;;
14907;SDS011;7545;52.092;7.006;2023-11-19T01:31:51;11.43;;;8.07;;
14907;SDS011;7545;52.092;7.006;2023-11-19T01:34:17;13.88;;;8.63;;
14907;SDS011;7545;52.092;7.006;2023-11-19T01:36:43;13.48;;;8.63;;
14907;SDS011;7545;52.092;7.006;2023-11-19T01:39:09;12.13;;;8.68;;
14907;SDS011;7545;52.092;7.006;2023-11-19T01:41:34;14.32;;;9.63;;
14907;SDS011;7545;52.092;7.006;2023-11-19T01:44:01;12.82;;;8.07;;
14907;SDS011;7545;52.092;7.006;2023-11-19T01:46:27;12.80;;;8.63;;
14907;SDS011;7545;52.092;7.006;2023-11-19T01:48:52;16.75;;;9.32;;
14907;SDS011;7545;52.092;7.006;2023-11-19T01:51:19;9.80;;;8.43;;
14907;SDS011;7545;52.092;7.006;2023-11-19T01:53:46;11.52;;;8.15;;
14907;SDS011;7545;52.092;7.006;2023-11-19T01:56:13;12.73;;;7.78;;
14907;SDS011;7545;52.092;7.006;2023-11-19T01:58:40;13.90;;;8.38;;
14907;SDS011;7545;52.092;7.006;2023-11-19T02:01:08;10.73;;;8.80;;
14907;SDS011;7545;52.092;7.006;2023-11-19T02:03:36;12.38;;;7.70;;
14907;SDS011;7545;52.092;7.006;2023-11-19T02:06:02;9.70;;;8.02;;
14907;SDS011;7545;52.092;7.006;2023-11-19T02:08:32;11.30;;;7.90;;
14907;SDS011;7545;52.092;7.006;2023-11-19T02:10:57;11.93;;;7.30;;
14907;SDS011;7545;52.092;7.006;2023-11-19T02:13:26;13.98;;;8.60;;
14907;SDS011;7545;52.092;7.006;2023-11-19T02:15:53;11.45;;;7.70;;
14907;SDS011;7545;52.092;7.006;2023-11-19T02:20:52;13.25;;;7.63;;
14907;SDS011;7545;52.092;7.006;2023-11-19T02:23:21;20.08;;;8.43;;
14907;SDS011;7545;52.092;7.006;2023-11-19T02:28:30;13.15;;;7.60;;
14907;SDS011;7545;52.092;7.006;2023-11-19T02:30:57;16.25;;;7.70;;
14907;SDS011;7545;52.092;7.006;2023-11-19T02:33:23;15.52;;;7.35;;
14907;SDS011;7545;52.092;7.006;2023-11-19T02:35:50;17.77;;;7.85;;
14907;SDS011;7545;52.092;7.006;2023-11-19T02:38:16;12.68;;;8.20;;
14907;SDS011;7545;52.092;7.006;2023-11-19T02:40:42;11.52;;;7.32;;
14907;SDS011;7545;52.092;7.006;2023-11-19T02:43:07;9.57;;;7.35;;
14907;SDS011;7545;52.092;7.006;2023-11-19T02:45:33;14.27;;;7.07;;
14907;SDS011;7545;52.092;7.006;2023-11-19T02:47:59;10.10;;;6.43;;
14907;SDS011;7545;52.092;7.006;2023-11-19T02:50:26;16.13;;;6.85;;
14907;SDS011;7545;52.092;7.006;2023-11-19T02:52:53;14.52;;;7.40;;
14907;SDS011;7545;52.092;7.006;2023-11-19T02:55:21;20.00;;;7.13;;
14907;SDS011;7545;52.092;7.006;2023-11-19T02:57:48;8.88;;;6.82;;
14907;SDS011;7545;52.092;7.006;2023-11-19T03:00:15;14.98;;;6.47;;
14907;SDS011;7545;52.092;7.006;2023-11-19T03:02:49;14.25;;;7.03;;
14907;SDS011;7545;52.092;7.006;2023-11-19T03:05:30;14.23;;;6.35;;
14907;SDS011;7545;52.092;7.006;2023-11-19T03:07:56;13.02;;;6.40;;
14907;SDS011;7545;52.092;7.006;2023-11-19T03:10:22;14.73;;;6.20;;
14907;SDS011;7545;52.092;7.006;2023-11-19T03:12:49;9.95;;;5.88;;
14907;SDS011;7545;52.092;7.006;2023-11-19T03:15:14;15.00;;;5.60;;
14907;SDS011;7545;52.092;7.006;2023-11-19T03:17:41;17.95;;;6.97;;
14907;SDS011;7545;52.092;7.006;2023-11-19T03:20:08;15.13;;;6.68;;
14907;SDS011;7545;52.092;7.006;2023-11-19T03:22:39;16.90;;;6.70;;
14907;SDS011;7545;52.092;7.006;2023-11-19T03:25:06;13.60;;;5.80;;
14907;SDS011;7545;52.092;7.006;2023-11-19T03:27:34;19.10;;;5.85;;
14907;SDS011;7545;52.092;7.006;2023-11-19T03:30:01;22.15;;;5.72;;
14907;SDS011;7545;52.092;7.006;2023-11-19T03:32:29;15.90;;;5.13;;
14907;SDS011;7545;52.092;7.006;2023-11-19T03:34:56;19.33;;;5.43;;
14907;SDS011;7545;52.092;7.006;2023-11-19T03:37:21;12.02;;;5.13;;
14907;SDS011;7545;52.092;7.006;2023-11-19T03:39:47;16.08;;;5.72;;
14907;SDS011;7545;52.092;7.006;2023-11-19T03:42:12;12.35;;;6.07;;
14907;SDS011;7545;52.092;7.006;2023-11-19T03:44:38;15.68;;;4.80;;
14907;SDS011;7545;52.092;7.006;2023-11-19T03:47:04;12.50;;;5.35;;
14907;SDS011;7545;52.092;7.006;2023-11-19T03:49:30;18.17;;;5.88;;
14907;SDS011;7545;52.092;7.006;2023-11-19T03:51:55;14.02;;;4.97;;
14907;SDS011;7545;52.092;7.006;2023-11-19T03:54:21;13.80;;;5.57;;
14907;SDS011;7545;52.092;7.006;2023-11-19T03:56:48;16.77;;;4.85;;
14907;SDS011;7545;52.092;7.006;2023-11-19T03:59:13;13.45;;;4.97;;
14907;SDS011;7545;52.092;7.006;2023-11-19T04:01:40;12.35;;;4.95;;
14907;SDS011;7545;52.092;7.006;2023-11-19T04:04:06;11.43;;;4.88;;
14907;SDS011;7545;52.092;7.006;2023-11-19T04:06:31;16.92;;;5.70;;
14907;SDS011;7545;52.092;7.006;2023-11-19T04:08:57;21.77;;;5.53;;
14907;SDS011;7545;52.092;7.006;2023-11-19T04:11:22;16.63;;;4.95;;
14907;SDS011;7545;52.092;7.006;2023-11-19T04:13:48;18.98;;;4.95;;
14907;SDS011;7545;52.092;7.006;2023-11-19T04:16:14;19.77;;;4.65;;
14907;SDS011;7545;52.092;7.006;2023-11-19T04:18:39;20.73;;;4.38;;
14907;SDS011;7545;52.092;7.006;2023-11-19T04:21:06;18.08;;;4.95;;
14907;SDS011;7545;52.092;7.006;2023-11-19T04:23:32;13.60;;;4.43;;
14907;SDS011;7545;52.092;7.006;2023-11-19T04:25:58;16.65;;;4.25;;
14907;SDS011;7545;52.092;7.006;2023-11-19T04:28:24;19.20;;;4.47;;
14907;SDS011;7545;52.092;7.006;2023-11-19T04:30:52;22.80;;;4.53;;
14907;SDS011;7545;52.092;7.006;2023-11-19T04:33:17;18.98;;;5.30;;
14907;SDS011;7545;52.092;7.006;2023-11-19T04:35:43;21.67;;;4.70;;
14907;SDS011;7545;52.092;7.006;2023-11-19T04:38:08;22.02;;;5.07;;
14907;SDS011;7545;52.092;7.006;2023-11-19T04:40:34;19.92;;;4.65;;
14907;SDS011;7545;52.092;7.006;2023-11-19T04:42:59;25.02;;;4.50;;
14907;SDS011;7545;52.092;7.006;2023-11-19T04:45:25;19.48;;;4.82;;
14907;SDS011;7545;52.092;7.006;2023-11-19T04:47:51;22.48;;;5.03;;
14907;SDS011;7545;52.092;7.006;2023-11-19T04:50:16;25.48;;;5.25;;
14907;SDS011;7545;52.092;7.006;2023-11-19T04:52:42;17.67;;;3.83;;
14907;SDS011;7545;52.092;7.006;2023-11-19T04:55:10;27.40;;;4.40;;
14907;SDS011;7545;52.092;7.006;2023-11-19T04:57:39;20.92;;;4.05;;
14907;SDS011;7545;52.092;7.006;2023-11-19T05:00:05;24.80;;;4.90;;
14907;SDS011;7545;52.092;7.006;2023-11-19T05:02:32;19.92;;;5.45;;
14907;SDS011;7545;52.092;7.006;2023-11-19T05:04:59;26.13;;;5.10;;
14907;SDS011;7545;52.092;7.006;2023-11-19T05:07:25;22.30;;;3.35;;
14907;SDS011;7545;52.092;7.006;2023-11-19T05:09:51;27.75;;;4.93;;
14907;SDS011;7545;52.092;7.006;2023-11-19T05:12:17;20.17;;;4.78;;
14907;SDS011;7545;52.092;7.006;2023-11-19T05:14:42;22.63;;;3.85;;
14907;SDS011;7545;52.092;7.006;2023-11-19T05:17:14;16.20;;;3.90;;
14907;SDS011;7545;52.092;7.006;2023-11-19T05:19:40;23.05;;;4.75;;
14907;SDS011;7545;52.092;7.006;2023-11-19T05:22:05;14.57;;;3.72;;
14907;SDS011;7545;52.092;7.006;2023-11-19T05:24:31;14.27;;;4.07;;
14907;SDS011;7545;52.092;7.006;2023-11-19T05:26:57;12.45;;;4.47;;
14907;SDS011;7545;52.092;7.006;2023-11-19T05:29:23;19.25;;;5.18;;
14907;SDS011;7545;52.092;7.006;2023-11-19T05:31:49;21.65;;;4.50;;
14907;SDS011;7545;52.092;7.006;2023-11-19T05:34:15;18.30;;;4.15;;
14907;SDS011;7545;52.092;7.006;2023-11-19T05:36:40;13.00;;;4.53;;
14907;SDS011;7545;52.092;7.006;2023-11-19T05:39:06;13.82;;;4.05;;
14907;SDS011;7545;52.092;7.006;2023-11-19T05:41:31;23.92;;;4.78;;
14907;SDS011;7545;52.092;7.006;2023-11-19T05:43:57;14.93;;;4.45;;
14907;SDS011;7545;52.092;7.006;2023-11-19T05:46:23;20.13;;;4.55;;
14907;SDS011;7545;52.092;7.006;2023-11-19T05:48:50;19.33;;;5.07;;
14907;SDS011;7545;52.092;7.006;2023-11-19T05:51:16;16.38;;;4.55;;
14907;SDS011;7545;52.092;7.006;2023-11-19T05:53:42;18.92;;;4.70;;
14907;SDS011;7545;52.092;7.006;2023-11-19T05:56:08;19.77;;;4.00;;
14907;SDS011;7545;52.092;7.006;2023-11-19T05:58:34;20.95;;;3.50;;
14907;SDS011;7545;52.092;7.006;2023-11-19T06:01:01;20.17;;;5.10;;
14907;SDS011;7545;52.092;7.006;2023-11-19T06:03:27;20.45;;;4.65;;
14907;SDS011;7545;52.092;7.006;2023-11-19T06:05:53;20.73;;;4.55;;
14907;SDS011;7545;52.092;7.006;2023-11-19T06:08:19;20.58;;;4.13;;
14907;SDS011;7545;52.092;7.006;2023-11-19T06:10:48;25.50;;;4.53;;
14907;SDS011;7545;52.092;7.006;2023-11-19T06:13:16;18.63;;;3.80;;
14907;SDS011;7545;52.092;7.006;2023-11-19T06:15:41;22.00;;;4.10;;
14907;SDS011;7545;52.092;7.006;2023-11-19T06:18:07;19.20;;;3.67;;
14907;SDS011;7545;52.092;7.006;2023-11-19T06:20:33;22.00;;;5.18;;
14907;SDS011;7545;52.092;7.006;2023-11-19T06:22:59;21.42;;;3.83;;
14907;SDS011;7545;52.092;7.006;2023-11-19T06:25:25;20.33;;;4.50;;
14907;SDS011;7545;52.092;7.006;2023-11-19T06:27:51;20.27;;;4.72;;
14907;SDS011;7545;52.092;7.006;2023-11-19T06:30:17;17.95;;;3.67;;
14907;SDS011;7545;52.092;7.006;2023-11-19T06:32:43;15.98;;;5.60;;
14907;SDS011;7545;52.092;7.006;2023-11-19T06:35:09;20.83;;;3.50;;
14907;SDS011;7545;52.092;7.006;2023-11-19T06:37:35;20.60;;;4.63;;
14907;SDS011;7545;52.092;7.006;2023-11-19T06:40:01;18.20;;;4.13;;
14907;SDS011;7545;52.092;7.006;2023-11-19T06:42:27;19.92;;;4.00;;
14907;SDS011;7545;52.092;7.006;2023-11-19T06:44:53;19.88;;;4.80;;
14907;SDS011;7545;52.092;7.006;2023-11-19T06:47:19;28.63;;;5.75;;
14907;SDS011;7545;52.092;7.006;2023-11-19T06:49:44;21.05;;;4.30;;
14907;SDS011;7545;52.092;7.006;2023-11-19T06:52:10;16.20;;;4.03;;
14907;SDS011;7545;52.092;7.006;2023-11-19T06:54:36;23.80;;;4.72;;
14907;SDS011;7545;52.092;7.006;2023-11-19T06:57:04;24.17;;;5.03;;
14907;SDS011;7545;52.092;7.006;2023-11-19T06:59:30;23.13;;;4.60;;
14907;SDS011;7545;52.092;7.006;2023-11-19T07:01:56;28.60;;;5.80;;
14907;SDS011;7545;52.092;7.006;2023-11-19T07:04:21;20.08;;;4.35;;
14907;SDS011;7545;52.092;7.006;2023-11-19T07:06:47;18.90;;;3.85;;
14907;SDS011;7545;52.092;7.006;2023-11-19T07:09:13;18.13;;;5.00;;
14907;SDS011;7545;52.092;7.006;2023-11-19T07:11:39;29.90;;;7.35;;
14907;SDS011;7545;52.092;7.006;2023-11-19T07:14:06;16.10;;;4.10;;
14907;SDS011;7545;52.092;7.006;2023-11-19T07:16:33;23.17;;;4.97;;
14907;SDS011;7545;52.092;7.006;2023-11-19T07:18:59;15.40;;;3.90;;
14907;SDS011;7545;52.092;7.006;2023-11-19T07:21:26;28.50;;;3.95;;
14907;SDS011;7545;52.092;7.006;2023-11-19T07:23:53;17.73;;;3.22;;
14907;SDS011;7545;52.092;7.006;2023-11-19T07:26:19;14.40;;;3.83;;
14907;SDS011;7545;52.092;7.006;2023-11-19T07:28:45;19.63;;;4.43;;
14907;SDS011;7545;52.092;7.006;2023-11-19T07:31:11;18.33;;;4.20;;
14907;SDS011;7545;52.092;7.006;2023-11-19T07:33:39;28.35;;;6.57;;
14907;SDS011;7545;52.092;7.006;2023-11-19T07:36:07;23.25;;;4.35;;
14907;SDS011;7545;52.092;7.006;2023-11-19T07:38:33;11.05;;;3.67;;
14907;SDS011;7545;52.092;7.006;2023-11-19T07:40:59;20.77;;;4.18;;
14907;SDS011;7545;52.092;7.006;2023-11-19T07:43:25;25.48;;;4.43;;
14907;SDS011;7545;52.092;7.006;2023-11-19T07:45:50;23.63;;;5.13;;
14907;SDS011;7545;52.092;7.006;2023-11-19T07:48:16;22.45;;;4.97;;
14907;SDS011;7545;52.092;7.006;2023-11-19T07:50:47;20.08;;;4.55;;
14907;SDS011;7545;52.092;7.006;2023-11-19T07:53:15;22.77;;;4.30;;
14907;SDS011;7545;52.092;7.006;2023-11-19T07:55:44;16.00;;;4.13;;
14907;SDS011;7545;52.092;7.006;2023-11-19T07:58:10;22.33;;;5.82;;
14907;SDS011;7545;52.092;7.006;2023-11-19T08:00:36;19.98;;;5.18;;
14907;SDS011;7545;52.092;7.006;2023-11-19T08:03:02;25.05;;;5.88;;
14907;SDS011;7545;52.092;7.006;2023-11-19T08:05:28;23.95;;;4.40;;
14907;SDS011;7545;52.092;7.006;2023-11-19T08:07:54;16.35;;;3.75;;
14907;SDS011;7545;52.092;7.006;2023-11-19T08:10:19;19.63;;;4.38;;
14907;SDS011;7545;52.092;7.006;2023-11-19T08:12:45;18.33;;;4.25;;
14907;SDS011;7545;52.092;7.006;2023-11-19T08:15:10;20.50;;;4.38;;
14907;SDS011;7545;52.092;7.006;2023-11-19T08:17:36;19.95;;;5.03;;
14907;SDS011;7545;52.092;7.006;2023-11-19T08:20:02;22.58;;;4.18;;
14907;SDS011;7545;52.092;7.006;2023-11-19T08:22:29;14.32;;;3.70;;
14907;SDS011;7545;52.092;7.006;2023-11-19T08:24:55;21.75;;;4.03;;
14907;SDS011;7545;52.092;7.006;2023-11-19T08:27:21;21.48;;;3.92;;
14907;SDS011;7545;52.092;7.006;2023-11-19T08:29:52;21.48;;;4.50;;
14907;SDS011;7545;52.092;7.006;2023-11-19T08:32:20;22.35;;;4.05;;
14907;SDS011;7545;52.092;7.006;2023-11-19T08:34:46;24.90;;;4.63;;
14907;SDS011;7545;52.092;7.006;2023-11-19T08:37:11;21.88;;;4.95;;
14907;SDS011;7545;52.092;7.006;2023-11-19T08:39:37;23.27;;;6.13;;
14907;SDS011;7545;52.092;7.006;2023-11-19T08:42:03;24.92;;;5.15;;
14907;SDS011;7545;52.092;7.006;2023-11-19T08:44:29;18.77;;;4.18;;
14907;SDS011;7545;52.092;7.006;2023-11-19T08:46:55;26.33;;;4.40;;
14907;SDS011;7545;52.092;7.006;2023-11-19T08:49:20;19.77;;;4.32;;
14907;SDS011;7545;52.092;7.006;2023-11-19T08:51:46;15.43;;;3.60;;
14907;SDS011;7545;52.092;7.006;2023-11-19T08:54:11;22.10;;;5.00;;
14907;SDS011;7545;52.092;7.006;2023-11-19T08:56:38;25.35;;;4.88;;
14907;SDS011;7545;52.092;7.006;2023-11-19T08:59:04;21.33;;;5.07;;
14907;SDS011;7545;52.092;7.006;2023-11-19T09:01:30;23.73;;;5.30;;
14907;SDS011;7545;52.092;7.006;2023-11-19T09:03:56;15.50;;;4.45;;
14907;SDS011;7545;52.092;7.006;2023-11-19T09:06:22;17.60;;;3.78;;
14907;SDS011;7545;52.092;7.006;2023-11-19T09:08:48;20.38;;;3.97;;
14907;SDS011;7545;52.092;7.006;2023-11-19T09:11:13;21.95;;;5.07;;
14907;SDS011;7545;52.092;7.006;2023-11-19T09:13:39;21.48;;;3.88;;
14907;SDS011;7545;52.092;7.006;2023-11-19T09:16:04;18.08;;;5.25;;
14907;SDS011;7545;52.092;7.006;2023-11-19T09:18:30;20.88;;;5.07;;
14907;SDS011;7545;52.092;7.006;2023-11-19T09:20:57;22.10;;;5.32;;
14907;SDS011;7545;52.092;7.006;2023-11-19T09:23:23;18.70;;;4.70;;
14907;SDS011;7545;52.092;7.006;2023-11-19T09:25:50;19.20;;;4.40;;
14907;SDS011;7545;52.092;7.006;2023-11-19T09:28:15;27.10;;;4.95;;
14907;SDS011;7545;52.092;7.006;2023-11-19T09:30:41;16.17;;;3.90;;
14907;SDS011;7545;52.092;7.006;2023-11-19T09:33:07;22.90;;;4.55;;
14907;SDS011;7545;52.092;7.006;2023-11-19T09:35:32;22.48;;;5.53;;
14907;SDS011;7545;52.092;7.006;2023-11-19T09:37:58;22.60;;;4.72;;
14907;SDS011;7545;52.092;7.006;2023-11-19T09:40:24;20.98;;;5.38;;
14907;SDS011;7545;52.092;7.006;2023-11-19T09:42:49;24.52;;;4.95;;
14907;SDS011;7545;52.092;7.006;2023-11-19T09:45:16;17.00;;;4.60;;
14907;SDS011;7545;52.092;7.006;2023-11-19T09:47:43;27.40;;;5.07;;
14907;SDS011;7545;52.092;7.006;2023-11-19T09:50:19;19.45;;;4.28;;
14907;SDS011;7545;52.092;7.006;2023-11-19T09:52:45;18.73;;;4.88;;
14907;SDS011;7545;52.092;7.006;2023-11-19T09:55:12;13.15;;;3.55;;
14907;SDS011;7545;52.092;7.006;2023-11-19T09:57:38;23.67;;;4.10;;
14907;SDS011;7545;52.092;7.006;2023-11-19T10:00:09;21.92;;;4.78;;
14907;SDS011;7545;52.092;7.006;2023-11-19T10:02:36;23.20;;;4.75;;
14907;SDS011;7545;52.092;7.006;2023-11-19T10:05:11;20.02;;;4.13;;
14907;SDS011;7545;52.092;7.006;2023-11-19T10:07:38;15.70;;;3.95;;
14907;SDS011;7545;52.092;7.006;2023-11-19T10:10:04;21.73;;;5.18;;
14907;SDS011;7545;52.092;7.006;2023-11-19T10:12:30;18.10;;;4.03;;
14907;SDS011;7545;52.092;7.006;2023-11-19T10:14:58;23.48;;;6.13;;
14907;SDS011;7545;52.092;7.006;2023-11-19T10:17:28;17.92;;;4.32;;
14907;SDS011;7545;52.092;7.006;2023-11-19T10:19:59;16.05;;;4.28;;
14907;SDS011;7545;52.092;7.006;2023-11-19T10:22:27;20.05;;;4.85;;
14907;SDS011;7545;52.092;7.006;2023-11-19T10:24:53;15.68;;;4.65;;
14907;SDS011;7545;52.092;7.006;2023-11-19T10:27:19;13.13;;;4.63;;
14907;SDS011;7545;52.092;7.006;2023-11-19T10:29:45;26.98;;;5.20;;
14907;SDS011;7545;52.092;7.006;2023-11-19T10:32:12;19.83;;;5.68;;
14907;SDS011;7545;52.092;7.006;2023-11-19T10:34:38;15.40;;;3.70;;
14907;SDS011;7545;52.092;7.006;2023-11-19T10:37:04;22.35;;;4.20;;
14907;SDS011;7545;52.092;7.006;2023-11-19T10:42:35;20.00;;;4.25;;
14907;SDS011;7545;52.092;7.006;2023-11-19T10:45:01;16.38;;;5.32;;
14907;SDS011;7545;52.092;7.006;2023-11-19T10:47:27;21.13;;;5.10;;
14907;SDS011;7545;52.092;7.006;2023-11-19T10:49:55;20.17;;;3.92;;
14907;SDS011;7545;52.092;7.006;2023-11-19T10:52:21;15.73;;;3.53;;
14907;SDS011;7545;52.092;7.006;2023-11-19T10:54:50;20.95;;;4.55;;
14907;SDS011;7545;52.092;7.006;2023-11-19T10:57:21;22.55;;;4.43;;
14907;SDS011;7545;52.092;7.006;2023-11-19T10:59:49;16.83;;;4.07;;
14907;SDS011;7545;52.092;7.006;2023-11-19T11:02:21;18.92;;;5.03;;
14907;SDS011;7545;52.092;7.006;2023-11-19T11:04:49;29.70;;;4.22;;
14907;SDS011;7545;52.092;7.006;2023-11-19T11:07:15;24.42;;;4.57;;
14907;SDS011;7545;52.092;7.006;2023-11-19T11:09:43;20.30;;;4.38;;
14907;SDS011;7545;52.092;7.006;2023-11-19T11:12:11;20.27;;;4.25;;
14907;SDS011;7545;52.092;7.006;2023-11-19T11:14:38;21.60;;;3.83;;
14907;SDS011;7545;52.092;7.006;2023-11-19T11:17:05;20.63;;;4.10;;
14907;SDS011;7545;52.092;7.006;2023-11-19T11:19:33;18.00;;;3.65;;
14907;SDS011;7545;52.092;7.006;2023-11-19T11:21:59;25.70;;;4.32;;
14907;SDS011;7545;52.092;7.006;2023-11-19T11:32:46;24.05;;;3.88;;
14907;SDS011;7545;52.092;7.006;2023-11-19T11:38:39;16.42;;;4.47;;
14907;SDS011;7545;52.092;7.006;2023-11-19T11:41:22;15.65;;;3.33;;
14907;SDS011;7545;52.092;7.006;2023-11-19T11:43:49;19.00;;;5.82;;
14907;SDS011;7545;52.092;7.006;2023-11-19T11:48:58;19.92;;;4.38;;
14907;SDS011;7545;52.092;7.006;2023-11-19T11:54:10;20.92;;;4.38;;
14907;SDS011;7545;52.092;7.006;2023-11-19T11:56:36;22.52;;;6.93;;
14907;SDS011;7545;52.092;7.006;2023-11-19T11:59:03;19.27;;;4.00;;
14907;SDS011;7545;52.092;7.006;2023-11-19T12:01:32;20.90;;;4.10;;
14907;SDS011;7545;52.092;7.006;2023-11-19T12:03:58;17.58;;;4.35;;
14907;SDS011;7545;52.092;7.006;2023-11-19T12:06:24;19.70;;;4.32;;
14907;SDS011;7545;52.092;7.006;2023-11-19T12:08:51;24.30;;;4.28;;
14907;SDS011;7545;52.092;7.006;2023-11-19T12:11:17;18.05;;;3.72;;
14907;SDS011;7545;52.092;7.006;2023-11-19T12:16:15;18.00;;;3.67;;
14907;SDS011;7545;52.092;7.006;2023-11-19T12:18:41;22.98;;;3.70;;
14907;SDS011;7545;52.092;7.006;2023-11-19T12:21:07;10.80;;;3.42;;
14907;SDS011;7545;52.092;7.006;2023-11-19T12:23:34;19.52;;;3.45;;
14907;SDS011;7545;52.092;7.006;2023-11-19T12:26:00;17.38;;;3.17;;
14907;SDS011;7545;52.092;7.006;2023-11-19T12:28:26;19.92;;;4.18;;
14907;SDS011;7545;52.092;7.006;2023-11-19T12:30:52;16.77;;;3.67;;
14907;SDS011;7545;52.092;7.006;2023-11-19T12:33:18;20.48;;;4.55;;
14907;SDS011;7545;52.092;7.006;2023-11-19T12:35:45;14.55;;;4.80;;
14907;SDS011;7545;52.092;7.006;2023-11-19T12:38:22;18.58;;;4.47;;
14907;SDS011;7545;52.092;7.006;2023-11-19T12:41:04;18.38;;;4.25;;
14907;SDS011;7545;52.092;7.006;2023-11-19T12:43:30;12.32;;;3.45;;
14907;SDS011;7545;52.092;7.006;2023-11-19T12:45:57;26.30;;;4.55;;
14907;SDS011;7545;52.092;7.006;2023-11-19T12:48:23;20.13;;;3.83;;
14907;SDS011;7545;52.092;7.006;2023-11-19T12:53:18;17.92;;;5.28;;
14907;SDS011;7545;52.092;7.006;2023-11-19T12:55:44;16.77;;;3.67;;
14907;SDS011;7545;52.092;7.006;2023-11-19T12:58:10;27.52;;;4.03;;
14907;SDS011;7545;52.092;7.006;2023-11-19T13:00:38;16.13;;;6.03;;
14907;SDS011;7545;52.092;7.006;2023-11-19T13:03:04;16.60;;;4.22;;
14907;SDS011;7545;52.092;7.006;2023-11-19T13:05:30;17.75;;;4.85;;
14907;SDS011;7545;52.092;7.006;2023-11-19T13:10:28;21.90;;;4.18;;
14907;SDS011;7545;52.092;7.006;2023-11-19T13:13:07;17.15;;;3.78;;
14907;SDS011;7545;52.092;7.006;2023-11-19T13:15:33;19.98;;;4.78;;
14907;SDS011;7545;52.092;7.006;2023-11-19T13:18:00;17.00;;;3.70;;
14907;SDS011;7545;52.092;7.006;2023-11-19T13:20:27;19.30;;;4.20;;
14907;SDS011;7545;52.092;7.006;2023-11-19T13:23:02;21.17;;;3.50;;
14907;SDS011;7545;52.092;7.006;2023-11-19T13:25:29;23.83;;;3.85;;
14907;SDS011;7545;52.092;7.006;2023-11-19T13:27:55;14.05;;;3.85;;
14907;SDS011;7545;52.092;7.006;2023-11-19T13:30:21;14.57;;;4.22;;
14907;SDS011;7545;52.092;7.006;2023-11-19T13:32:48;19.10;;;3.63;;
14907;SDS011;7545;52.092;7.006;2023-11-19T13:35:14;12.45;;;4.30;;
14907;SDS011;7545;52.092;7.006;2023-11-19T13:37:42;18.40;;;4.07;;
14907;SDS011;7545;52.092;7.006;2023-11-19T13:40:07;16.55;;;4.00;;
14907;SDS011;7545;52.092;7.006;2023-11-19T13:42:35;14.05;;;3.95;;
14907;SDS011;7545;52.092;7.006;2023-11-19T13:45:06;9.13;;;3.28;;
14907;SDS011;7545;52.092;7.006;2023-11-19T13:47:35;13.73;;;4.55;;
14907;SDS011;7545;52.092;7.006;2023-11-19T13:50:01;16.55;;;4.00;;
14907;SDS011;7545;52.092;7.006;2023-11-19T13:52:31;10.65;;;3.17;;
14907;SDS011;7545;52.092;7.006;2023-11-19T13:54:56;16.92;;;4.15;;
14907;SDS011;7545;52.092;7.006;2023-11-19T13:57:22;10.70;;;2.70;;
14907;SDS011;7545;52.092;7.006;2023-11-19T13:59:47;13.45;;;3.72;;
14907;SDS011;7545;52.092;7.006;2023-11-19T14:02:13;18.02;;;4.18;;
14907;SDS011;7545;52.092;7.006;2023-11-19T14:04:38;11.73;;;2.92;;
14907;SDS011;7545;52.092;7.006;2023-11-19T14:07:04;13.65;;;3.17;;
14907;SDS011;7545;52.092;7.006;2023-11-19T14:09:29;19.88;;;5.20;;
14907;SDS011;7545;52.092;7.006;2023-11-19T14:11:55;12.15;;;4.07;;
14907;SDS011;7545;52.092;7.006;2023-11-19T14:14:21;13.93;;;2.95;;
14907;SDS011;7545;52.092;7.006;2023-11-19T14:16:46;10.50;;;3.28;;
14907;SDS011;7545;52.092;7.006;2023-11-19T14:19:12;12.30;;;2.70;;
14907;SDS011;7545;52.092;7.006;2023-11-19T14:21:38;13.68;;;3.38;;
14907;SDS011;7545;52.092;7.006;2023-11-19T14:24:04;12.45;;;2.80;;
14907;SDS011;7545;52.092;7.006;2023-11-19T14:26:30;14.48;;;2.80;;
14907;SDS011;7545;52.092;7.006;2023-11-19T14:28:56;21.15;;;4.55;;
14907;SDS011;7545;52.092;7.006;2023-11-19T14:31:21;19.20;;;3.20;;
14907;SDS011;7545;52.092;7.006;2023-11-19T14:33:47;16.60;;;3.30;;
14907;SDS011;7545;52.092;7.006;2023-11-19T14:36:13;11.00;;;3.42;;
14907;SDS011;7545;52.092;7.006;2023-11-19T14:38:39;20.02;;;3.33;;
14907;SDS011;7545;52.092;7.006;2023-11-19T14:41:05;13.27;;;3.30;;
14907;SDS011;7545;52.092;7.006;2023-11-19T14:43:30;13.18;;;3.47;;
14907;SDS011;7545;52.092;7.006;2023-11-19T14:45:56;13.38;;;3.08;;
14907;SDS011;7545;52.092;7.006;2023-11-19T14:48:22;19.65;;;3.78;;
14907;SDS011;7545;52.092;7.006;2023-11-19T14:50:48;14.05;;;3.88;;
14907;SDS011;7545;52.092;7.006;2023-11-19T14:53:14;14.52;;;4.35;;
14907;SDS011;7545;52.092;7.006;2023-11-19T14:55:40;13.18;;;3.03;;
14907;SDS011;7545;52.092;7.006;2023-11-19T14:58:06;17.85;;;3.13;;
14907;SDS011;7545;52.092;7.006;2023-11-19T15:00:31;11.13;;;3.03;;
14907;SDS011;7545;52.092;7.006;2023-11-19T15:02:58;13.55;;;2.75;;
14907;SDS011;7545;52.092;7.006;2023-11-19T15:05:24;13.20;;;3.13;;
14907;SDS011;7545;52.092;7.006;2023-11-19T15:07:50;17.02;;;3.28;;
14907;SDS011;7545;52.092;7.006;2023-11-19T15:10:15;13.95;;;3.40;;
14907;SDS011;7545;52.092;7.006;2023-11-19T15:12:41;10.45;;;4.85;;
14907;SDS011;7545;52.092;7.006;2023-11-19T15:15:07;10.45;;;2.55;;
14907;SDS011;7545;52.092;7.006;2023-11-19T15:17:39;9.95;;;2.55;;